createdAt,value
2023-10-11T00:00:44.322Z,39.00
2023-10-11T00:03:29.262Z,39.25
2023-10-11T00:06:14.374Z,38.78
2023-10-11T00:08:59.292Z,39.43
2023-10-11T00:11:44.407Z,40.79
2023-10-11T00:14:29.273Z,41.42
2023-10-11T00:17:14.287Z,40.91
2023-10-11T00:19:59.338Z,40.43
2023-10-11T00:22:44.397Z,40.45
2023-10-11T00:25:29.432Z,41.09
2023-10-11T00:28:14.602Z,40.87
2023-10-11T00:30:59.545Z,40.29
2023-10-11T00:33:44.641Z,41.50
2023-10-11T00:36:29.655Z,42.22
2023-10-11T00:39:14.578Z,43.20
2023-10-11T00:41:59.524Z,42.61
2023-10-11T00:44:44.397Z,42.66
2023-10-11T00:47:29.472Z,43.12
2023-10-11T00:50:14.585Z,43.93
2023-10-11T00:55:48.036Z,42.00
2023-10-11T00:58:33.027Z,42.17
2023-10-11T01:01:18.039Z,41.05
2023-10-11T01:04:03.273Z,40.38
2023-10-11T01:06:48.099Z,39.11
2023-10-11T01:09:33.264Z,39.35
2023-10-11T01:12:18.134Z,38.41
2023-10-11T01:15:03.270Z,37.03
2023-10-11T01:17:48.270Z,37.54
2023-10-11T01:20:33.239Z,39.04
2023-10-11T01:23:18.379Z,39.90
2023-10-11T01:26:03.322Z,40.55
2023-10-11T01:28:48.317Z,41.53
2023-10-11T01:31:33.316Z,42.47
2023-10-11T01:34:18.584Z,41.43
2023-10-11T01:37:03.487Z,40.86
2023-10-11T01:39:48.576Z,40.41
2023-10-11T01:42:33.562Z,40.27
2023-10-11T01:45:18.737Z,41.40
2023-10-11T01:48:03.798Z,41.42
2023-10-11T01:50:48.818Z,41.87
2023-10-11T01:53:33.898Z,41.31
2023-10-11T01:56:18.888Z,41.82
2023-10-11T01:59:04.003Z,40.69
2023-10-11T02:01:49.109Z,40.59
2023-10-11T02:04:34.172Z,39.20
2023-10-11T02:07:19.210Z,39.42
2023-10-11T02:10:04.293Z,39.69
2023-10-11T02:12:49.561Z,39.30
2023-10-11T02:15:34.544Z,38.95
2023-10-11T02:18:19.648Z,40.36
2023-10-11T02:21:04.615Z,42.27
2023-10-11T02:23:49.628Z,42.13
2023-10-11T02:26:34.561Z,42.10
2023-10-11T02:29:19.540Z,41.51
2023-10-11T02:32:04.500Z,41.26
2023-10-11T02:34:49.472Z,41.45
2023-10-11T02:37:34.693Z,41.07
2023-10-11T02:40:19.584Z,40.75
2023-10-11T02:43:04.866Z,40.78
2023-10-11T02:45:49.707Z,39.65
2023-10-11T02:48:34.655Z,40.49
2023-10-11T02:51:19.796Z,39.83
2023-10-11T02:54:04.848Z,40.81
2023-10-11T02:56:49.912Z,41.38
2023-10-11T02:59:34.885Z,40.98
2023-10-11T03:02:19.946Z,39.93
2023-10-11T03:05:04.960Z,39.63
2023-10-11T03:07:50.067Z,40.31
2023-10-11T03:10:35.083Z,39.79
2023-10-11T03:13:20.034Z,39.56
2023-10-11T03:16:05.071Z,40.40
2023-10-11T03:18:50.059Z,41.84
2023-10-11T03:21:35.060Z,41.56
2023-10-11T03:24:20.000Z,41.28
2023-10-11T03:27:05.048Z,40.51
2023-10-11T03:29:50.031Z,39.33
2023-10-11T03:32:35.036Z,39.51
2023-10-11T03:35:20.123Z,38.58
2023-10-11T03:38:05.024Z,37.53
2023-10-11T03:40:50.052Z,38.75
2023-10-11T03:43:35.129Z,39.46
2023-10-11T03:46:20.145Z,41.29
2023-10-11T03:49:05.224Z,42.76
2023-10-11T03:51:50.276Z,42.90
2023-10-11T03:54:35.265Z,43.80
2023-10-11T03:57:20.534Z,43.82
2023-10-11T04:00:05.651Z,44.00
2023-10-11T04:02:50.552Z,41.92
2023-10-11T04:05:35.958Z,41.70
2023-10-11T04:08:20.959Z,41.34
2023-10-11T04:11:06.045Z,41.08
2023-10-11T04:13:50.943Z,40.06
2023-10-11T04:16:35.998Z,40.25
2023-10-11T04:19:21.179Z,39.02
2023-10-11T04:22:06.060Z,37.95
2023-10-11T04:24:51.266Z,38.43
2023-10-11T04:27:36.308Z,38.93
2023-10-11T04:30:21.305Z,40.05
2023-10-11T04:33:06.376Z,39.93
2023-10-11T04:35:51.343Z,42.21
2023-10-11T04:38:36.379Z,41.35
2023-10-11T04:41:21.405Z,41.33
2023-10-11T04:44:06.519Z,41.56
2023-10-11T04:46:51.526Z,41.69
2023-10-11T04:49:36.479Z,41.88
2023-10-11T04:52:21.375Z,41.03
2023-10-11T04:55:06.578Z,40.68
2023-10-11T04:57:51.427Z,42.22
2023-10-11T05:00:36.628Z,41.38
2023-10-11T05:03:21.790Z,42.20
2023-10-11T05:06:06.612Z,41.37
2023-10-11T05:08:51.721Z,42.38
2023-10-11T05:11:36.696Z,42.40
2023-10-11T05:14:21.832Z,41.22
2023-10-11T05:17:06.738Z,42.02
2023-10-11T05:19:51.935Z,40.35
2023-10-11T05:22:36.898Z,41.40
2023-10-11T05:25:21.996Z,40.79
2023-10-11T05:28:07.133Z,39.82
2023-10-11T05:30:52.032Z,39.37
2023-10-11T05:33:37.357Z,40.44
2023-10-11T05:36:22.260Z,40.66
2023-10-11T05:39:07.242Z,41.59
2023-10-11T05:41:52.246Z,41.71
2023-10-11T05:44:37.280Z,41.30
2023-10-11T05:47:22.576Z,40.47
2023-10-11T05:50:07.504Z,40.87
2023-10-11T05:52:52.594Z,41.63
2023-10-11T05:55:37.496Z,41.78
2023-10-11T05:58:22.554Z,41.95
2023-10-11T06:01:07.564Z,43.12
2023-10-11T06:03:52.896Z,43.84
2023-10-11T06:06:38.258Z,44.60
2023-10-11T06:09:23.192Z,44.86
2023-10-11T06:12:08.303Z,43.17
2023-10-11T06:14:53.483Z,43.26
2023-10-11T06:17:38.447Z,41.91
2023-10-11T06:20:23.587Z,42.43
2023-10-11T06:23:08.444Z,42.98
2023-10-11T06:25:53.479Z,42.94
2023-10-11T06:28:38.510Z,44.06
2023-10-11T06:31:23.614Z,41.71
2023-10-11T06:34:08.525Z,39.97
2023-10-11T06:36:53.662Z,39.16
2023-10-11T06:39:38.653Z,38.09
2023-10-11T06:42:23.895Z,37.87
2023-10-11T06:45:08.792Z,39.54
2023-10-11T06:47:53.957Z,40.95
2023-10-11T06:50:39.025Z,41.49
2023-10-11T06:53:24.547Z,43.06
2023-10-11T06:56:09.561Z,42.00
2023-10-11T06:58:54.553Z,43.19
2023-10-11T07:01:39.660Z,40.39
2023-10-11T07:04:24.831Z,42.17
2023-10-11T07:07:09.753Z,41.87
2023-10-11T07:09:54.815Z,38.20
2023-10-11T07:12:39.820Z,39.42
2023-10-11T07:15:24.985Z,37.33
2023-10-11T07:18:10.040Z,37.00
2023-10-11T07:20:55.139Z,35.18
2023-10-11T07:23:40.067Z,34.96
2023-10-11T07:26:25.150Z,35.74
2023-10-11T07:29:10.084Z,37.14
2023-10-11T07:31:55.362Z,34.94
2023-10-11T07:34:40.438Z,37.38
2023-10-11T07:37:25.346Z,35.93
2023-10-11T07:40:10.475Z,35.63
2023-10-11T07:42:55.477Z,36.06
2023-10-11T07:45:40.218Z,35.84
2023-10-11T07:48:25.318Z,34.86
2023-10-11T07:51:10.443Z,36.04
2023-10-11T07:53:55.388Z,35.11
2023-10-11T07:56:40.350Z,36.00
2023-10-11T07:59:25.453Z,35.93
2023-10-11T08:02:10.330Z,34.89
2023-10-11T08:04:55.466Z,35.54
2023-10-11T08:07:40.535Z,37.33
2023-10-11T08:10:25.478Z,36.90
2023-10-11T08:13:10.449Z,38.75
2023-10-11T08:15:55.584Z,40.43
2023-10-11T08:18:40.748Z,38.60
2023-10-11T08:21:25.664Z,42.66
2023-10-11T08:24:10.604Z,39.12
2023-10-11T08:26:55.676Z,39.90
2023-10-11T08:29:46.649Z,39.47
2023-10-11T08:32:42.190Z,37.65
2023-10-11T08:35:27.587Z,37.97
2023-10-11T08:38:12.620Z,38.50
2023-10-11T08:40:57.599Z,38.27
2023-10-11T08:43:42.600Z,38.84
2023-10-11T08:46:27.593Z,40.50
2023-10-11T08:49:12.571Z,39.30
2023-10-11T08:51:57.366Z,40.33
2023-10-11T08:54:42.583Z,39.18
2023-10-11T08:57:27.389Z,38.36
2023-10-11T09:00:12.764Z,39.08
2023-10-11T09:03:00.132Z,37.90
2023-10-11T09:05:45.357Z,40.17
2023-10-11T09:08:30.471Z,35.02
2023-10-11T09:11:15.321Z,36.78
2023-10-11T09:14:00.373Z,37.48
2023-10-11T09:16:45.362Z,36.91
2023-10-11T09:19:30.338Z,39.02
2023-10-11T09:22:15.315Z,37.88
2023-10-11T09:25:00.411Z,37.91
2023-10-11T09:27:45.423Z,37.48
2023-10-11T09:30:30.308Z,37.29
2023-10-11T09:33:15.502Z,36.16
2023-10-11T09:36:00.414Z,38.48
2023-10-11T09:38:45.526Z,36.80
2023-10-11T09:41:30.617Z,37.76
2023-10-11T09:44:15.665Z,38.88
2023-10-11T09:47:00.709Z,39.33
2023-10-11T09:49:45.591Z,37.97
2023-10-11T09:52:30.624Z,36.47
2023-10-11T09:55:15.529Z,36.37
2023-10-11T09:58:00.503Z,38.09
2023-10-11T10:00:45.757Z,37.55
2023-10-11T10:03:30.985Z,36.21
2023-10-11T10:06:15.990Z,36.50
2023-10-11T10:09:01.096Z,35.22
2023-10-11T10:11:46.252Z,35.01
2023-10-11T10:14:31.305Z,35.82
2023-10-11T10:17:16.440Z,36.57
2023-10-11T10:20:01.531Z,38.02
2023-10-11T10:22:46.607Z,37.00
2023-10-11T10:25:31.778Z,37.23
2023-10-11T10:28:16.693Z,35.61
2023-10-11T10:31:01.604Z,37.92
2023-10-11T10:33:46.545Z,36.43
2023-10-11T10:36:31.622Z,36.73
2023-10-11T10:39:16.822Z,34.70
2023-10-11T10:42:03.783Z,38.50
2023-10-11T10:44:48.848Z,36.78
2023-10-11T10:47:33.909Z,34.80
2023-10-11T10:50:18.806Z,35.66
2023-10-11T10:53:03.781Z,35.17
2023-10-11T10:55:48.845Z,35.03
2023-10-11T10:58:33.989Z,34.18
2023-10-11T11:01:23.953Z,35.12
2023-10-11T11:04:09.189Z,35.36
2023-10-11T11:06:54.040Z,33.55
2023-10-11T11:09:39.008Z,35.18
2023-10-11T11:12:24.134Z,34.05
2023-10-11T11:15:09.146Z,34.91
2023-10-11T11:17:54.313Z,34.51
2023-10-11T11:20:39.316Z,34.28
2023-10-11T11:23:24.480Z,35.74
2023-10-11T11:26:18.389Z,34.41
2023-10-11T11:29:10.984Z,33.30
2023-10-11T11:31:56.111Z,33.03
2023-10-11T11:34:41.054Z,31.47
2023-10-11T11:37:26.163Z,32.14
2023-10-11T11:40:10.930Z,32.88
2023-10-11T11:42:56.062Z,34.58
2023-10-11T11:45:41.037Z,34.77
2023-10-11T11:48:26.143Z,33.95
2023-10-11T11:51:10.961Z,33.02
2023-10-11T11:53:56.050Z,32.85
2023-10-11T11:56:41.112Z,33.39
2023-10-11T11:59:26.065Z,35.73
2023-10-11T12:02:12.177Z,33.29
2023-10-11T12:04:57.337Z,34.13
2023-10-11T12:07:42.356Z,32.64
2023-10-11T12:10:27.490Z,34.84
2023-10-11T12:13:12.534Z,32.50
2023-10-11T12:15:57.758Z,31.96
2023-10-11T12:18:42.642Z,32.92
2023-10-11T12:21:27.612Z,31.59
2023-10-11T12:24:28.573Z,34.16
2023-10-11T12:27:16.130Z,33.73
2023-10-11T12:30:09.141Z,34.82
2023-10-11T12:32:56.842Z,35.47
2023-10-11T12:35:43.075Z,34.62
2023-10-11T12:38:28.041Z,33.07
2023-10-11T12:41:13.063Z,34.23
2023-10-11T12:43:58.000Z,35.30
2023-10-11T12:46:43.090Z,34.06
2023-10-11T12:49:28.013Z,35.17
2023-10-11T12:52:13.107Z,34.80
2023-10-11T12:54:58.238Z,34.88
2023-10-11T12:57:43.256Z,34.41
2023-10-11T13:00:28.473Z,36.06
2023-10-11T13:03:13.323Z,35.28
2023-10-11T13:05:58.384Z,35.58
2023-10-11T13:08:43.297Z,35.61
2023-10-11T13:11:28.364Z,35.36
2023-10-11T13:14:13.308Z,35.54
2023-10-11T13:16:58.386Z,35.23
2023-10-11T13:19:43.395Z,38.34
2023-10-11T13:22:28.323Z,35.52
2023-10-11T13:25:13.476Z,35.75
2023-10-11T13:27:58.418Z,36.96
2023-10-11T13:30:43.658Z,35.84
2023-10-11T13:33:28.478Z,40.71
2023-10-11T13:36:13.666Z,39.23
2023-10-11T13:38:58.830Z,38.92
2023-10-11T13:41:43.789Z,38.61
2023-10-11T13:44:29.003Z,34.43
2023-10-11T13:47:14.158Z,35.45
2023-10-11T13:49:59.108Z,33.46
2023-10-11T13:52:43.882Z,33.29
2023-10-11T13:55:13.910Z,30.82
2023-10-11T13:57:58.652Z,32.23
2023-10-11T14:00:43.717Z,32.18
2023-10-11T14:03:28.912Z,36.05
2023-10-11T14:06:13.875Z,37.47
2023-10-11T14:08:58.796Z,37.31
2023-10-11T14:11:43.684Z,39.48
2023-10-11T14:14:28.752Z,39.05
2023-10-11T14:17:13.671Z,37.91
2023-10-11T14:19:58.320Z,40.40
2023-10-11T14:22:43.320Z,37.60
2023-10-11T14:25:28.469Z,37.83
2023-10-11T14:28:13.467Z,35.28
2023-10-11T14:30:58.508Z,32.97
2023-10-11T14:33:43.473Z,37.81
2023-10-11T14:36:28.429Z,36.55
2023-10-11T14:39:13.477Z,37.32
2023-10-11T14:41:58.508Z,36.46
2023-10-11T14:44:43.624Z,35.94
2023-10-11T14:47:28.528Z,36.58
2023-10-11T14:50:13.724Z,36.29
2023-10-11T14:52:58.631Z,36.94
2023-10-11T14:55:43.574Z,35.80
2023-10-11T14:58:28.626Z,35.83
2023-10-11T15:01:13.574Z,36.24
2023-10-11T15:03:58.775Z,36.12
2023-10-11T15:06:43.572Z,36.33
2023-10-11T15:09:28.653Z,32.78
2023-10-11T15:12:13.789Z,34.12
2023-10-11T15:14:58.795Z,35.31
2023-10-11T15:17:44.050Z,35.76
2023-10-11T15:20:29.148Z,34.29
2023-10-11T15:23:14.216Z,33.80
2023-10-11T15:25:59.174Z,35.06
2023-10-11T15:28:44.105Z,34.19
2023-10-11T15:31:29.284Z,35.26
2023-10-11T15:34:14.417Z,33.85
2023-10-11T15:36:59.240Z,33.90
2023-10-11T15:39:44.438Z,34.01
2023-10-11T15:42:29.418Z,35.65
2023-10-11T15:45:14.219Z,35.25
2023-10-11T15:47:59.215Z,35.29
2023-10-11T15:50:44.178Z,34.81
2023-10-11T15:53:29.211Z,34.89
2023-10-11T15:56:14.372Z,34.70
2023-10-11T15:58:59.326Z,34.76
2023-10-11T16:01:44.556Z,33.69
2023-10-11T16:04:29.451Z,32.82
2023-10-11T16:07:14.421Z,30.84
2023-10-11T16:09:59.319Z,30.06
2023-10-11T16:12:45.690Z,30.46
2023-10-11T16:15:30.787Z,31.74
2023-10-11T16:18:15.917Z,31.37
2023-10-11T16:21:03.624Z,30.07
2023-10-11T16:23:49.721Z,32.37
2023-10-11T16:26:35.390Z,31.34
2023-10-11T16:29:20.886Z,31.67
2023-10-11T16:32:05.884Z,32.81
2023-10-11T16:34:50.920Z,32.68
2023-10-11T16:37:35.949Z,33.18
2023-10-11T16:40:20.910Z,31.95
2023-10-11T16:43:06.140Z,30.77
2023-10-11T16:45:51.082Z,30.05
2023-10-11T16:48:36.063Z,31.45
2023-10-11T16:51:21.118Z,31.60
2023-10-11T16:54:06.156Z,31.68
2023-10-11T16:56:51.118Z,30.59
2023-10-11T16:59:36.164Z,30.00
2023-10-11T17:02:21.176Z,30.20
2023-10-11T17:05:05.889Z,30.03
2023-10-11T17:07:51.036Z,30.01
2023-10-11T17:10:35.991Z,30.04
2023-10-11T17:13:21.121Z,30.23
2023-10-11T17:16:06.087Z,30.94
2023-10-11T17:18:51.071Z,30.98
2023-10-11T17:21:36.074Z,30.26
2023-10-11T17:24:21.337Z,31.52
2023-10-11T17:27:06.267Z,29.14
2023-10-11T17:29:51.315Z,29.15
2023-10-11T17:32:36.492Z,30.31
2023-10-11T17:35:21.245Z,29.96
2023-10-11T17:38:06.272Z,28.72
2023-10-11T17:40:51.272Z,29.45
2023-10-11T17:43:36.364Z,28.03
2023-10-11T17:46:21.325Z,27.87
2023-10-11T17:49:06.211Z,26.81
2023-10-11T17:51:51.326Z,27.13
2023-10-11T17:54:36.436Z,28.78
2023-10-11T17:57:21.515Z,29.77
2023-10-11T18:00:06.436Z,30.85
2023-10-11T18:02:51.696Z,30.84
2023-10-11T18:05:36.574Z,29.69
2023-10-11T18:08:21.606Z,28.66
2023-10-11T18:11:06.781Z,29.95
2023-10-11T18:13:51.721Z,30.39
2023-10-11T18:16:36.743Z,28.91
2023-10-11T18:19:21.776Z,29.91
2023-10-11T18:22:06.732Z,30.76
2023-10-11T18:24:51.937Z,29.57
2023-10-11T18:27:37.002Z,31.45
2023-10-11T18:30:21.970Z,31.18
2023-10-11T18:33:07.005Z,31.94
2023-10-11T18:35:52.032Z,31.64
2023-10-11T18:38:37.123Z,32.61
2023-10-11T18:41:22.102Z,31.71
2023-10-11T18:44:07.105Z,31.36
2023-10-11T18:46:52.188Z,33.00
2023-10-11T18:49:37.256Z,34.32
2023-10-11T18:52:22.413Z,33.71
2023-10-11T18:55:07.604Z,32.65
2023-10-11T18:57:53.265Z,33.81
2023-10-11T19:00:38.808Z,33.27
2023-10-11T19:03:23.839Z,32.56
2023-10-11T19:06:10.785Z,31.41
2023-10-11T19:08:56.882Z,32.18
2023-10-11T19:11:41.741Z,32.78
2023-10-11T19:14:26.771Z,34.18
2023-10-11T19:17:11.824Z,32.83
2023-10-11T19:19:56.834Z,32.63
2023-10-11T19:22:41.811Z,31.93
2023-10-11T19:25:26.888Z,31.50
2023-10-11T19:28:12.049Z,31.80
2023-10-11T19:30:57.014Z,30.56
2023-10-11T19:33:42.159Z,32.44
2023-10-11T19:36:27.093Z,32.54
2023-10-11T19:39:12.154Z,33.64
2023-10-11T19:41:57.015Z,34.16
2023-10-11T19:44:42.028Z,34.10
2023-10-11T19:47:27.025Z,34.13
2023-10-11T19:50:12.038Z,33.73
2023-10-11T19:52:57.166Z,33.06
2023-10-11T19:55:42.321Z,32.36
2023-10-11T19:58:27.420Z,32.46
2023-10-11T20:01:12.558Z,33.14
2023-10-11T20:03:57.468Z,33.60
2023-10-11T20:06:42.122Z,31.57
2023-10-11T20:09:27.142Z,30.92
2023-10-11T20:12:12.264Z,31.99
2023-10-11T20:14:57.062Z,32.65
2023-10-11T20:17:42.082Z,33.77
2023-10-11T20:20:26.919Z,35.69
2023-10-11T20:23:12.067Z,34.86
2023-10-11T20:25:57.132Z,34.20
2023-10-11T20:28:42.332Z,33.68
2023-10-11T20:31:27.323Z,34.26
2023-10-11T20:34:12.323Z,33.99
2023-10-11T20:36:57.249Z,34.11
2023-10-11T20:39:42.208Z,34.75
2023-10-11T20:42:27.193Z,35.44
2023-10-11T20:45:12.145Z,35.04
2023-10-11T20:47:57.381Z,35.98
2023-10-11T20:50:42.216Z,35.89
2023-10-11T20:53:27.262Z,36.66
2023-10-11T20:56:12.263Z,37.85
2023-10-11T20:58:57.299Z,39.53
2023-10-11T21:01:42.508Z,37.81
2023-10-11T21:04:27.388Z,37.71
2023-10-11T21:07:12.546Z,37.81
2023-10-11T21:09:57.259Z,37.95
2023-10-11T21:12:42.373Z,37.58
2023-10-11T21:15:27.343Z,38.33
2023-10-11T21:18:12.502Z,36.30
2023-10-11T21:20:57.439Z,35.46
2023-10-11T21:23:42.521Z,34.31
2023-10-11T21:26:27.706Z,33.91
2023-10-11T21:29:12.533Z,34.21
2023-10-11T21:31:57.564Z,34.30
2023-10-11T21:34:42.553Z,35.50
2023-10-11T21:37:27.506Z,36.57
2023-10-11T21:40:12.432Z,38.87
2023-10-11T21:42:57.396Z,40.78
2023-10-11T21:45:42.489Z,40.82
2023-10-11T21:48:27.317Z,40.13
2023-10-11T21:51:12.483Z,37.39
2023-10-11T21:53:57.496Z,39.93
2023-10-11T21:56:35.826Z,39.89
2023-10-11T21:59:20.883Z,38.52
2023-10-11T22:02:06.345Z,33.41
2023-10-11T22:04:51.397Z,34.47
2023-10-11T22:07:36.425Z,33.28
2023-10-11T22:10:21.457Z,35.04
2023-10-11T22:13:06.577Z,36.40
2023-10-11T22:15:51.444Z,36.64
2023-10-11T22:18:36.367Z,37.00
2023-10-11T22:21:21.376Z,39.45
2023-10-11T22:24:06.588Z,39.86
2023-10-11T22:26:51.702Z,37.64
2023-10-11T22:29:36.689Z,36.66
2023-10-11T22:32:21.713Z,36.99
2023-10-11T22:35:06.761Z,37.34
2023-10-11T22:37:51.671Z,37.70
2023-10-11T22:40:36.658Z,36.55
2023-10-11T22:43:30.317Z,35.29
2023-10-11T22:46:15.897Z,37.26
2023-10-11T22:49:01.069Z,34.71
2023-10-11T22:51:46.068Z,35.17
2023-10-11T22:54:31.044Z,35.31
2023-10-11T22:57:16.042Z,32.39
2023-10-11T23:00:00.987Z,33.43
2023-10-11T23:02:46.232Z,35.35
2023-10-11T23:05:31.175Z,34.60
2023-10-11T23:08:16.352Z,34.65
2023-10-11T23:11:01.075Z,34.44
2023-10-11T23:13:46.169Z,32.63
2023-10-11T23:16:31.137Z,34.47
2023-10-11T23:19:16.114Z,31.97
2023-10-11T23:22:01.102Z,32.00
2023-10-11T23:24:46.091Z,34.79
2023-10-11T23:27:30.999Z,34.17
2023-10-11T23:30:16.063Z,34.12
2023-10-11T23:33:01.164Z,34.15
2023-10-11T23:35:46.094Z,32.71
2023-10-11T23:38:31.206Z,33.23
2023-10-11T23:41:16.358Z,32.55
2023-10-11T23:44:01.270Z,31.21
2023-10-11T23:46:46.210Z,30.56
2023-10-11T23:49:40.963Z,33.03
2023-10-11T23:52:27.280Z,35.64
2023-10-11T23:55:12.326Z,35.00
2023-10-11T23:57:57.345Z,33.64
